Stolt Dipper — ZCMY3 — position and weather

sailwx.info

Track history (hours):
 
Tides and Currents Weather Stations Pressure Air Temp Water Temp Dewpoint Dewpoint Depression Visibility Wind Speed Wind Dir Waves Ship Positions

Stolt Dipper

Last reported at 2016-May-02 09:33 UTC. Time now 2016-May-02 19:27 UTC.
Position N 53°33' W 003°57'.

Length 96 m; draft 6.6 m.

Type: Ship (hazmat cat B). MMSI: 319036000.

Date/timePositionNaut miles runAvg speedWind from/ knotsBaromVisibWave heightAir tempDewpointWater temp
2016-May-02 09:33N 53°33' W 003°57'1211.7
2016-May-02 08:33N 53°33' W 003°37'1111.0
2016-May-02 07:33N 53°32' W 003°19'1110.5
2016-May-02 06:33N 53°28' W 003°03'9 9.1
2016-May-02 05:33N 53°19' W 002°57'2 1.6
2016-May-02 04:33N 53°18' W 002°55'3 2.7
2016-May-02 03:32N 53°17' W 002°51'0 0.0
2016-May-02 02:32N 53°17' W 002°51'0 0.0
2016-May-02 01:32N 53°17' W 002°51'0 0.0
2016-May-02 00:32N 53°17' W 002°51'0 0.0
2016-May-01 23:29N 53°17' W 002°51'0 0.0
2016-May-01 22:29N 53°17' W 002°51'0 0.0
2016-May-01 21:32N 53°17' W 002°51'0 0.0
2016-May-01 20:23N 53°17' W 002°51'0 0.0
2016-May-01 19:32N 53°17' W 002°51'0 0.0
2016-May-01 18:32N 53°17' W 002°51'0 0.0
2016-May-01 17:32N 53°17' W 002°51'0 0.0
2016-May-01 16:32N 53°17' W 002°51'0 0.0
2016-May-01 15:23N 53°17' W 002°51'0 0.1
2016-May-01 14:32N 53°17' W 002°51'0 0.1
2016-May-01 13:32N 53°17' W 002°51'0 0.0
2016-May-01 12:29N 53°17' W 002°51'0 0.0
2016-May-01 11:32N 53°17' W 002°51'0 0.0
2016-May-01 10:29N 53°17' W 002°51'0 0.0
2016-May-01 09:32N 53°17' W 002°51'0 0.0
2016-May-01 08:32N 53°17' W 002°51'0 0.0
2016-May-01 07:26N 53°17' W 002°51'0 0.0
2016-May-01 06:32N 53°17' W 002°51'0 0.0
2016-May-01 05:32N 53°17' W 002°51'0 0.0
2016-May-01 04:32N 53°17' W 002°51'0 0.0
2016-May-01 03:29N 53°17' W 002°51'0 0.0
2016-May-01 02:32N 53°17' W 002°51'0 0.0
2016-May-01 01:32N 53°17' W 002°51'0 0.0
2016-May-01 00:29N 53°17' W 002°51'1 0.7
2016-Apr-30 23:33N 53°17' W 002°52'0 0.0
2016-Apr-30 22:31N 53°17' W 002°52'0 0.0
2016-Apr-30 21:31N 53°17' W 002°52'0 0.0
2016-Apr-30 20:31N 53°17' W 002°52'0 0.0
2016-Apr-30 19:31N 53°17' W 002°52'0 0.0
2016-Apr-30 18:31N 53°17' W 002°52'0 0.0
2016-Apr-30 17:28N 53°17' W 002°52'0 0.0
2016-Apr-30 16:28N 53°17' W 002°52'0 0.0
2016-Apr-30 15:31N 53°17' W 002°52'0 0.0
2016-Apr-30 14:28N 53°17' W 002°52'0 0.0
2016-Apr-30 13:16N 53°17' W 002°52'0 0.0
2016-Apr-30 12:25N 53°17' W 002°52'0 0.0
2016-Apr-30 11:31N 53°17' W 002°52'0 0.0
2016-Apr-30 10:31N 53°17' W 002°52'0 0.0
2016-Apr-30 09:25N 53°17' W 002°52'0 0.0
2016-Apr-30 07:25N 53°17' W 002°52'0 0.0
2016-Apr-30 06:19N 53°17' W 002°52'0 0.0
2016-Apr-30 05:31N 53°17' W 002°52'2 2.5
2016-Apr-30 04:33N 53°18' W 002°56'1 1.3
2016-Apr-30 03:33N 53°19' W 002°57'0 0.2
2016-Apr-30 02:30N 53°19' W 002°57'0 0.0
2016-Apr-30 01:33N 53°19' W 002°57'0 0.0
2016-Apr-30 00:33N 53°19' W 002°57'0 0.0
2016-Apr-29 23:33N 53°19' W 002°57'0 0.0
2016-Apr-29 22:33N 53°19' W 002°57'0 0.0
2016-Apr-29 21:27N 53°19' W 002°57'0 0.0
2016-Apr-29 20:33N 53°19' W 002°57'0 0.0
2016-Apr-29 19:34N 53°19' W 002°57'0 0.0
2016-Apr-29 18:33N 53°19' W 002°57'0 0.0
2016-Apr-29 17:33N 53°19' W 002°57'0 0.0
2016-Apr-29 16:33N 53°19' W 002°57'0 0.0
2016-Apr-29 15:33N 53°19' W 002°57'0 0.0
2016-Apr-29 14:30N 53°19' W 002°57'0 0.0
2016-Apr-29 13:33N 53°19' W 002°57'0 0.0
2016-Apr-29 12:18N 53°19' W 002°57'0 0.0
2016-Apr-29 11:34N 53°19' W 002°57'0 0.0
2016-Apr-29 10:33N 53°19' W 002°57'0 0.0
2016-Apr-29 09:33N 53°19' W 002°57'0 0.0
2016-Apr-29 08:30N 53°19' W 002°57'0 0.0
2016-Apr-29 07:33N 53°19' W 002°57'0 0.0
2016-Apr-29 06:33N 53°19' W 002°57'0 0.0
2016-Apr-29 05:34N 53°19' W 002°57'0 0.0
2016-Apr-29 04:31N 53°19' W 002°57'0 0.0
2016-Apr-29 03:33N 53°19' W 002°57'0 0.0
2016-Apr-29 02:34N 53°19' W 002°57'0 0.0
2016-Apr-29 01:33N 53°19' W 002°57'0 0.0
2016-Apr-29 00:34N 53°19' W 002°57'0 0.0
2016-Apr-28 23:33N 53°19' W 002°57'0 0.0
2016-Apr-28 22:33N 53°19' W 002°57'0 0.0
2016-Apr-28 21:33N 53°19' W 002°57'0 0.0
2016-Apr-28 20:30N 53°19' W 002°57'0 0.0
2016-Apr-28 19:24N 53°19' W 002°57'0 0.0
2016-Apr-28 18:24N 53°19' W 002°57'0 0.0
2016-Apr-28 17:33N 53°19' W 002°57'0 0.0
2016-Apr-28 16:30N 53°19' W 002°57'0 0.0
2016-Apr-28 15:33N 53°19' W 002°57'0 0.0
2016-Apr-28 14:33N 53°19' W 002°57'0 0.0
2016-Apr-28 13:31N 53°19' W 002°57'0 0.0
2016-Apr-28 12:33N 53°19' W 002°57'0 0.0
2016-Apr-28 11:33N 53°19' W 002°57'0 0.0
2016-Apr-28 10:33N 53°19' W 002°57'0 0.0
2016-Apr-28 09:33N 53°19' W 002°57'0 0.0
2016-Apr-28 08:33N 53°19' W 002°57'0 0.0
2016-Apr-28 07:27N 53°19' W 002°57'0 0.0
2016-Apr-28 06:34N 53°19' W 002°57'0 0.0
2016-Apr-28 05:30N 53°19' W 002°57'0 0.0
2016-Apr-28 04:33N 53°19' W 002°57'0 0.0
2016-Apr-28 03:33N 53°19' W 002°57'0 0.0
2016-Apr-28 02:33N 53°19' W 002°57'0 0.0
2016-Apr-28 01:30N 53°19' W 002°57'0 0.0
2016-Apr-28 00:33N 53°19' W 002°57'0 0.0
2016-Apr-27 23:33N 53°19' W 002°57'0 0.0
2016-Apr-27 22:30N 53°19' W 002°57'0 0.0
2016-Apr-27 21:33N 53°19' W 002°57'0 0.0
2016-Apr-27 20:30N 53°19' W 002°57'0 0.0
2016-Apr-27 19:30N 53°19' W 002°57'0 0.0
2016-Apr-27 18:30N 53°19' W 002°57'0 0.0
2016-Apr-27 17:33N 53°19' W 002°57'0 0.0
2016-Apr-27 16:30N 53°19' W 002°57'0 0.0
2016-Apr-27 15:33N 53°19' W 002°57'0 0.0
2016-Apr-27 14:24N 53°19' W 002°57'0 0.0
2016-Apr-27 13:18N 53°19' W 002°57'0 0.0
2016-Apr-27 12:30N 53°19' W 002°57'0 0.0
2016-Apr-27 11:34N 53°19' W 002°57'0 0.0
2016-Apr-27 10:27N 53°19' W 002°57'0 0.0
2016-Apr-27 09:33N 53°19' W 002°57'0 0.0
2016-Apr-27 08:33N 53°19' W 002°57'0 0.0
2016-Apr-27 07:24N 53°19' W 002°57'0 0.0
2016-Apr-27 06:27N 53°19' W 002°57'0 0.0
2016-Apr-27 05:27N 53°19' W 002°57'0 0.0
2016-Apr-27 04:30N 53°19' W 002°57'0 0.0
2016-Apr-27 03:33N 53°19' W 002°57'0 0.2
2016-Apr-27 02:33N 53°19' W 002°57'4 4.1
2016-Apr-27 01:33N 53°23' W 002°60'1010.3
2016-Apr-27 00:33N 53°32' W 003°10'9 9.4
2016-Apr-26 23:33N 53°30' W 003°26'1 1.4
2016-Apr-26 22:31N 53°29' W 003°27'0 0.0
2016-Apr-26 21:31N 53°29' W 003°27'0 0.0
2016-Apr-26 20:31N 53°29' W 003°27'0 0.0
2016-Apr-26 19:28N 53°29' W 003°27'0 0.0
2016-Apr-26 18:31N 53°29' W 003°27'0 0.0
2016-Apr-26 17:31N 53°29' W 003°27'0 0.0
2016-Apr-26 16:28N 53°29' W 003°27'0 0.0
2016-Apr-26 15:28N 53°29' W 003°27'0 0.0
2016-Apr-26 14:33N 53°29' W 003°27'0 0.0
2016-Apr-26 13:33N 53°29' W 003°27'0 0.2
2016-Apr-26 12:33N 53°29' W 003°28'1313.0
2016-Apr-26 11:33N 53°30' W 003°49'184 8.8
2016-Apr-25 14:31N 50°42' W 005°52'1410.7
2016-Apr-25 13:14N 50°29' W 005°52'810.4
2016-Apr-25 12:30N 50°21' W 005°52'47 7.6
2016-Apr-25 06:20N 49°57' W 004°49'910.6
2016-Apr-25 05:29N 49°58' W 004°35'1010.9
2016-Apr-25 04:32N 50°01' W 004°19'1211.9
2016-Apr-25 03:31N 50°03' W 004°01'1313.1
2016-Apr-25 02:34N 50°05' W 003°41'1313.1
2016-Apr-25 01:34N 50°08' W 003°22'1212.4
2016-Apr-25 00:34N 50°10' W 003°03'1111.3
2016-Apr-24 23:33N 50°12' W 002°45'7910.6
2016-Apr-24 16:04N 50°25' W 000°42'814.6
2016-Apr-24 15:32N 50°28' W 000°31'1414.1
2016-Apr-24 14:34N 50°32' W 000°10'1413.5
2016-Apr-24 13:33N 50°34' E 000°11'4012.1
2016-Apr-24 10:17N 50°53' E 001°06'1013.6
2016-Apr-24 09:33N 50°60' E 001°18'1615.6
2016-Apr-24 08:33N 51°09' E 001°37'1414.4
2016-Apr-24 07:33N 51°20' E 001°53'1010.4
2016-Apr-24 06:33N 51°23' E 002°09'1411.1
2016-Apr-24 05:20N 51°23' E 002°31'810.9
2016-Apr-24 04:34N 51°22' E 002°44'1010.0
2016-Apr-24 03:33N 51°24' E 002°60'1010.2
2016-Apr-24 02:34N 51°25' E 003°16'10 9.8
2016-Apr-24 01:34N 51°25' E 003°32'7 7.4
2016-Apr-24 00:34N 51°23' E 003°43'9 8.8
2016-Apr-23 23:33N 51°24' E 003°57'7 7.5
2016-Apr-23 22:34N 51°23' E 004°09'5 5.4
2016-Apr-23 21:34N 51°21' E 004°17'0 0.0
2016-Apr-23 20:33N 51°21' E 004°17'1 0.5
2016-Apr-23 19:33N 51°21' E 004°18'4 4.0
2016-Apr-23 18:33N 51°17' E 004°20'2 1.8
2016-Apr-23 17:31N 51°15' E 004°22'0 0.0
2016-Apr-23 16:28N 51°15' E 004°22'0 0.0
2016-Apr-23 15:31N 51°15' E 004°22'0 0.0
2016-Apr-23 14:31N 51°15' E 004°22'0 0.0
2016-Apr-23 13:31N 51°15' E 004°22'0 0.0
2016-Apr-23 12:19N 51°15' E 004°22'0 0.0
2016-Apr-23 11:31N 51°15' E 004°22'0 0.0
2016-Apr-23 10:31N 51°15' E 004°22'0 0.0
2016-Apr-23 09:31N 51°15' E 004°22'0 0.0
2016-Apr-23 08:31N 51°15' E 004°22'0 0.0
2016-Apr-23 07:31N 51°15' E 004°22'0 0.0
2016-Apr-23 06:31N 51°15' E 004°22'0 0.0
2016-Apr-23 05:31N 51°15' E 004°22'0 0.0
2016-Apr-23 04:31N 51°15' E 004°22'0 0.0
2016-Apr-23 03:31N 51°15' E 004°22'0 0.0
2016-Apr-23 02:28N 51°15' E 004°22'0 0.0
2016-Apr-23 01:31N 51°15' E 004°22'0 0.0
2016-Apr-23 00:31N 51°15' E 004°22'0 0.0
2016-Apr-22 23:31N 51°15' E 004°22'0 0.0
2016-Apr-22 22:31N 51°15' E 004°22'0 0.0
2016-Apr-22 21:31N 51°15' E 004°22'0 0.0
2016-Apr-22 20:31N 51°15' E 004°22'0 0.0
2016-Apr-22 19:28N 51°15' E 004°22'0 0.0
2016-Apr-22 18:31N 51°15' E 004°22'0 0.0
2016-Apr-22 17:31N 51°15' E 004°22'0 0.0
2016-Apr-22 16:28N 51°15' E 004°22'0 0.0
2016-Apr-22 15:31N 51°15' E 004°22'0 0.0
2016-Apr-22 14:31N 51°15' E 004°22'0 0.0
2016-Apr-22 13:28N 51°15' E 004°22'0 0.0
2016-Apr-22 12:31N 51°15' E 004°22'0 0.0
2016-Apr-22 11:31N 51°15' E 004°22'0 0.0
2016-Apr-22 10:31N 51°15' E 004°22'  
Track history (hours):
 
Tides and Currents Weather Stations Pressure Air Temp Water Temp Dewpoint Dewpoint Depression Visibility Wind Speed Wind Dir Waves Ship Positions

Stolt Dipper

Last reported at 2016-May-02 09:33 UTC. Time now 2016-May-02 19:27 UTC.
Position N 53°33' W 003°57'.

Length 96 m; draft 6.6 m.

Type: Ship (hazmat cat B). MMSI: 319036000.

Date/timePositionNaut miles runAvg speedWind from/ knotsBaromVisibWave heightAir tempDewpointWater temp
2016-May-02 09:33N 53°33' W 003°57'1211.7
2016-May-02 08:33N 53°33' W 003°37'1111.0
2016-May-02 07:33N 53°32' W 003°19'1110.5
2016-May-02 06:33N 53°28' W 003°03'9 9.1
2016-May-02 05:33N 53°19' W 002°57'2 1.6
2016-May-02 04:33N 53°18' W 002°55'3 2.7
2016-May-02 03:32N 53°17' W 002°51'0 0.0
2016-May-02 02:32N 53°17' W 002°51'0 0.0
2016-May-02 01:32N 53°17' W 002°51'0 0.0
2016-May-02 00:32N 53°17' W 002°51'0 0.0
2016-May-01 23:29N 53°17' W 002°51'0 0.0
2016-May-01 22:29N 53°17' W 002°51'0 0.0
2016-May-01 21:32N 53°17' W 002°51'0 0.0
2016-May-01 20:23N 53°17' W 002°51'0 0.0
2016-May-01 19:32N 53°17' W 002°51'0 0.0
2016-May-01 18:32N 53°17' W 002°51'0 0.0
2016-May-01 17:32N 53°17' W 002°51'0 0.0
2016-May-01 16:32N 53°17' W 002°51'0 0.0
2016-May-01 15:23N 53°17' W 002°51'0 0.1
2016-May-01 14:32N 53°17' W 002°51'0 0.1
2016-May-01 13:32N 53°17' W 002°51'0 0.0
2016-May-01 12:29N 53°17' W 002°51'0 0.0
2016-May-01 11:32N 53°17' W 002°51'0 0.0
2016-May-01 10:29N 53°17' W 002°51'0 0.0
2016-May-01 09:32N 53°17' W 002°51'0 0.0
2016-May-01 08:32N 53°17' W 002°51'0 0.0
2016-May-01 07:26N 53°17' W 002°51'0 0.0
2016-May-01 06:32N 53°17' W 002°51'0 0.0
2016-May-01 05:32N 53°17' W 002°51'0 0.0
2016-May-01 04:32N 53°17' W 002°51'0 0.0
2016-May-01 03:29N 53°17' W 002°51'0 0.0
2016-May-01 02:32N 53°17' W 002°51'0 0.0
2016-May-01 01:32N 53°17' W 002°51'0 0.0
2016-May-01 00:29N 53°17' W 002°51'1 0.7
2016-Apr-30 23:33N 53°17' W 002°52'0 0.0
2016-Apr-30 22:31N 53°17' W 002°52'0 0.0
2016-Apr-30 21:31N 53°17' W 002°52'0 0.0
2016-Apr-30 20:31N 53°17' W 002°52'0 0.0
2016-Apr-30 19:31N 53°17' W 002°52'0 0.0
2016-Apr-30 18:31N 53°17' W 002°52'0 0.0
2016-Apr-30 17:28N 53°17' W 002°52'0 0.0
2016-Apr-30 16:28N 53°17' W 002°52'0 0.0
2016-Apr-30 15:31N 53°17' W 002°52'0 0.0
2016-Apr-30 14:28N 53°17' W 002°52'0 0.0
2016-Apr-30 13:16N 53°17' W 002°52'0 0.0
2016-Apr-30 12:25N 53°17' W 002°52'0 0.0
2016-Apr-30 11:31N 53°17' W 002°52'0 0.0
2016-Apr-30 10:31N 53°17' W 002°52'0 0.0
2016-Apr-30 09:25N 53°17' W 002°52'0 0.0
2016-Apr-30 07:25N 53°17' W 002°52'0 0.0
2016-Apr-30 06:19N 53°17' W 002°52'0 0.0
2016-Apr-30 05:31N 53°17' W 002°52'2 2.5
2016-Apr-30 04:33N 53°18' W 002°56'1 1.3
2016-Apr-30 03:33N 53°19' W 002°57'0 0.2
2016-Apr-30 02:30N 53°19' W 002°57'0 0.0
2016-Apr-30 01:33N 53°19' W 002°57'0 0.0
2016-Apr-30 00:33N 53°19' W 002°57'0 0.0
2016-Apr-29 23:33N 53°19' W 002°57'0 0.0
2016-Apr-29 22:33N 53°19' W 002°57'0 0.0
2016-Apr-29 21:27N 53°19' W 002°57'0 0.0
2016-Apr-29 20:33N 53°19' W 002°57'0 0.0
2016-Apr-29 19:34N 53°19' W 002°57'0 0.0
2016-Apr-29 18:33N 53°19' W 002°57'0 0.0
2016-Apr-29 17:33N 53°19' W 002°57'0 0.0
2016-Apr-29 16:33N 53°19' W 002°57'0 0.0
2016-Apr-29 15:33N 53°19' W 002°57'0 0.0
2016-Apr-29 14:30N 53°19' W 002°57'0 0.0
2016-Apr-29 13:33N 53°19' W 002°57'0 0.0
2016-Apr-29 12:18N 53°19' W 002°57'0 0.0
2016-Apr-29 11:34N 53°19' W 002°57'0 0.0
2016-Apr-29 10:33N 53°19' W 002°57'0 0.0
2016-Apr-29 09:33N 53°19' W 002°57'0 0.0
2016-Apr-29 08:30N 53°19' W 002°57'0 0.0
2016-Apr-29 07:33N 53°19' W 002°57'0 0.0
2016-Apr-29 06:33N 53°19' W 002°57'0 0.0
2016-Apr-29 05:34N 53°19' W 002°57'0 0.0
2016-Apr-29 04:31N 53°19' W 002°57'0 0.0
2016-Apr-29 03:33N 53°19' W 002°57'0 0.0
2016-Apr-29 02:34N 53°19' W 002°57'0 0.0
2016-Apr-29 01:33N 53°19' W 002°57'0 0.0
2016-Apr-29 00:34N 53°19' W 002°57'0 0.0
2016-Apr-28 23:33N 53°19' W 002°57'0 0.0
2016-Apr-28 22:33N 53°19' W 002°57'0 0.0
2016-Apr-28 21:33N 53°19' W 002°57'0 0.0
2016-Apr-28 20:30N 53°19' W 002°57'0 0.0
2016-Apr-28 19:24N 53°19' W 002°57'0 0.0
2016-Apr-28 18:24N 53°19' W 002°57'0 0.0
2016-Apr-28 17:33N 53°19' W 002°57'0 0.0
2016-Apr-28 16:30N 53°19' W 002°57'0 0.0
2016-Apr-28 15:33N 53°19' W 002°57'0 0.0
2016-Apr-28 14:33N 53°19' W 002°57'0 0.0
2016-Apr-28 13:31N 53°19' W 002°57'0 0.0
2016-Apr-28 12:33N 53°19' W 002°57'0 0.0
2016-Apr-28 11:33N 53°19' W 002°57'0 0.0
2016-Apr-28 10:33N 53°19' W 002°57'0 0.0
2016-Apr-28 09:33N 53°19' W 002°57'0 0.0
2016-Apr-28 08:33N 53°19' W 002°57'0 0.0
2016-Apr-28 07:27N 53°19' W 002°57'0 0.0
2016-Apr-28 06:34N 53°19' W 002°57'0 0.0
2016-Apr-28 05:30N 53°19' W 002°57'0 0.0
2016-Apr-28 04:33N 53°19' W 002°57'0 0.0
2016-Apr-28 03:33N 53°19' W 002°57'0 0.0
2016-Apr-28 02:33N 53°19' W 002°57'0 0.0
2016-Apr-28 01:30N 53°19' W 002°57'0 0.0
2016-Apr-28 00:33N 53°19' W 002°57'0 0.0
2016-Apr-27 23:33N 53°19' W 002°57'0 0.0
2016-Apr-27 22:30N 53°19' W 002°57'0 0.0
2016-Apr-27 21:33N 53°19' W 002°57'0 0.0
2016-Apr-27 20:30N 53°19' W 002°57'0 0.0
2016-Apr-27 19:30N 53°19' W 002°57'0 0.0
2016-Apr-27 18:30N 53°19' W 002°57'0 0.0
2016-Apr-27 17:33N 53°19' W 002°57'0 0.0
2016-Apr-27 16:30N 53°19' W 002°57'0 0.0
2016-Apr-27 15:33N 53°19' W 002°57'0 0.0
2016-Apr-27 14:24N 53°19' W 002°57'0 0.0
2016-Apr-27 13:18N 53°19' W 002°57'0 0.0
2016-Apr-27 12:30N 53°19' W 002°57'0 0.0
2016-Apr-27 11:34N 53°19' W 002°57'0 0.0
2016-Apr-27 10:27N 53°19' W 002°57'0 0.0
2016-Apr-27 09:33N 53°19' W 002°57'0 0.0
2016-Apr-27 08:33N 53°19' W 002°57'0 0.0
2016-Apr-27 07:24N 53°19' W 002°57'0 0.0
2016-Apr-27 06:27N 53°19' W 002°57'0 0.0
2016-Apr-27 05:27N 53°19' W 002°57'0 0.0
2016-Apr-27 04:30N 53°19' W 002°57'0 0.0
2016-Apr-27 03:33N 53°19' W 002°57'0 0.2
2016-Apr-27 02:33N 53°19' W 002°57'4 4.1
2016-Apr-27 01:33N 53°23' W 002°60'1010.3
2016-Apr-27 00:33N 53°32' W 003°10'9 9.4
2016-Apr-26 23:33N 53°30' W 003°26'1 1.4
2016-Apr-26 22:31N 53°29' W 003°27'0 0.0
2016-Apr-26 21:31N 53°29' W 003°27'0 0.0
2016-Apr-26 20:31N 53°29' W 003°27'0 0.0
2016-Apr-26 19:28N 53°29' W 003°27'0 0.0
2016-Apr-26 18:31N 53°29' W 003°27'0 0.0
2016-Apr-26 17:31N 53°29' W 003°27'0 0.0
2016-Apr-26 16:28N 53°29' W 003°27'0 0.0
2016-Apr-26 15:28N 53°29' W 003°27'0 0.0
2016-Apr-26 14:33N 53°29' W 003°27'0 0.0
2016-Apr-26 13:33N 53°29' W 003°27'0 0.2
2016-Apr-26 12:33N 53°29' W 003°28'1313.0
2016-Apr-26 11:33N 53°30' W 003°49'184 8.8
2016-Apr-25 14:31N 50°42' W 005°52'1410.7
2016-Apr-25 13:14N 50°29' W 005°52'810.4
2016-Apr-25 12:30N 50°21' W 005°52'47 7.6
2016-Apr-25 06:20N 49°57' W 004°49'910.6
2016-Apr-25 05:29N 49°58' W 004°35'1010.9
2016-Apr-25 04:32N 50°01' W 004°19'1211.9
2016-Apr-25 03:31N 50°03' W 004°01'1313.1
2016-Apr-25 02:34N 50°05' W 003°41'1313.1
2016-Apr-25 01:34N 50°08' W 003°22'1212.4
2016-Apr-25 00:34N 50°10' W 003°03'1111.3
2016-Apr-24 23:33N 50°12' W 002°45'7910.6
2016-Apr-24 16:04N 50°25' W 000°42'814.6
2016-Apr-24 15:32N 50°28' W 000°31'1414.1
2016-Apr-24 14:34N 50°32' W 000°10'1413.5
2016-Apr-24 13:33N 50°34' E 000°11'4012.1
2016-Apr-24 10:17N 50°53' E 001°06'1013.6
2016-Apr-24 09:33N 50°60' E 001°18'1615.6
2016-Apr-24 08:33N 51°09' E 001°37'1414.4
2016-Apr-24 07:33N 51°20' E 001°53'1010.4
2016-Apr-24 06:33N 51°23' E 002°09'1411.1
2016-Apr-24 05:20N 51°23' E 002°31'810.9
2016-Apr-24 04:34N 51°22' E 002°44'1010.0
2016-Apr-24 03:33N 51°24' E 002°60'1010.2
2016-Apr-24 02:34N 51°25' E 003°16'10 9.8
2016-Apr-24 01:34N 51°25' E 003°32'7 7.4
2016-Apr-24 00:34N 51°23' E 003°43'9 8.8
2016-Apr-23 23:33N 51°24' E 003°57'7 7.5
2016-Apr-23 22:34N 51°23' E 004°09'5 5.4
2016-Apr-23 21:34N 51°21' E 004°17'0 0.0
2016-Apr-23 20:33N 51°21' E 004°17'1 0.5
2016-Apr-23 19:33N 51°21' E 004°18'4 4.0
2016-Apr-23 18:33N 51°17' E 004°20'2 1.8
2016-Apr-23 17:31N 51°15' E 004°22'0 0.0
2016-Apr-23 16:28N 51°15' E 004°22'0 0.0
2016-Apr-23 15:31N 51°15' E 004°22'0 0.0
2016-Apr-23 14:31N 51°15' E 004°22'0 0.0
2016-Apr-23 13:31N 51°15' E 004°22'0 0.0
2016-Apr-23 12:19N 51°15' E 004°22'0 0.0
2016-Apr-23 11:31N 51°15' E 004°22'0 0.0
2016-Apr-23 10:31N 51°15' E 004°22'0 0.0
2016-Apr-23 09:31N 51°15' E 004°22'0 0.0
2016-Apr-23 08:31N 51°15' E 004°22'0 0.0
2016-Apr-23 07:31N 51°15' E 004°22'0 0.0
2016-Apr-23 06:31N 51°15' E 004°22'0 0.0
2016-Apr-23 05:31N 51°15' E 004°22'0 0.0
2016-Apr-23 04:31N 51°15' E 004°22'0 0.0
2016-Apr-23 03:31N 51°15' E 004°22'0 0.0
2016-Apr-23 02:28N 51°15' E 004°22'0 0.0
2016-Apr-23 01:31N 51°15' E 004°22'0 0.0
2016-Apr-23 00:31N 51°15' E 004°22'0 0.0
2016-Apr-22 23:31N 51°15' E 004°22'0 0.0
2016-Apr-22 22:31N 51°15' E 004°22'0 0.0
2016-Apr-22 21:31N 51°15' E 004°22'0 0.0
2016-Apr-22 20:31N 51°15' E 004°22'0 0.0
2016-Apr-22 19:28N 51°15' E 004°22'0 0.0
2016-Apr-22 18:31N 51°15' E 004°22'0 0.0
2016-Apr-22 17:31N 51°15' E 004°22'0 0.0
2016-Apr-22 16:28N 51°15' E 004°22'0 0.0
2016-Apr-22 15:31N 51°15' E 004°22'0 0.0
2016-Apr-22 14:31N 51°15' E 004°22'0 0.0
2016-Apr-22 13:28N 51°15' E 004°22'0 0.0
2016-Apr-22 12:31N 51°15' E 004°22'0 0.0
2016-Apr-22 11:31N 51°15' E 004°22'0 0.0
2016-Apr-22 10:31N 51°15' E 004°22'  

Dump ship's entire track history